Aérodrome :
LOGIN :

S'inscrire | Disclaimer

   EN    FR    IT 

 










Légende :    VFR   VFR Marginal   IFR   IFR Intensif   IFR Très Intensif
Visi : 
Plafond : 
>= 8 km
>= 3000ft
5 à 8 km
1000 à 3000 ft
1500m à 5 km
500 à 1000 ft
800 à 1500m
200 à 500 ft
< 800m
< 200 ft
Symboles :   Orages  Brouillard  Fortes neiges  Fortes précipitations  Vent > 20 kt
SIGMETs :   Divers  Orages  Givrage  Turbulence  Onde Orograph.  Cendres Volcan.







- Altitude de l'aérodrome : 1302 ft
- Code IATA : GNB
- Voir les cartes d'approche


LFLS - Grenoble / St. Geoirs

DERNIER METAR :
  • 202330Z AUTO VRB02KT CAVOK 18/16 Q1017

METARs EXPIRÉS :
  • 202300Z AUTO VRB02KT CAVOK 18/16 Q1017
  • 202230Z AUTO 23004KT 210V300 CAVOK 18/16 Q1017
  • 202200Z AUTO 23004KT CAVOK 18/16 Q1017
  • 202130Z AUTO VRB01KT CAVOK 18/16 Q1016
  • 202100Z AUTO VRB02KT CAVOK 18/17 Q1016

TAF TAF LFLS
Valide du 20 à 15h jusqu'au 21 à 15h UTC


201400Z 2015/2115 VRB03KT 9999 SCT040 SCT110
TEMPO 2015/2020 34013KT 4000 SHRA FEW045CB BKN050TCU
PROB40
TEMPO 2015/2017 TSRA BKN040CB
PROB30
TEMPO 2020/2103 -SHRA SCT070TCU
BECMG 2111/2113 33010KT
ATIS : +33 4 76 65 55 89
Pas de NOTAMs connus pour ce terrain.



MET'MAP, la Météo Aéronautique d'un coup d'oeil ! - Copyright ORBIFLY Décembre 2007 - Disclaimer

ORBIFLY MET'MAP TEAM :

Programmation & Développement : Alexandra Zaïnal
Conception & Développement : Baudouin d'Aumeries
Co-Programmation & Développement : Marc-Olivier Méhu
Soutien technique & logistique : Manuel Goepfert

Contact : metmap@orbifly.com




SOURCES & CREDITS :

   NOAA